createdAt,value
2019-04-24T18:36:54.252Z,49.81
2019-04-24T18:39:21.640Z,49.88
2019-04-24T18:41:46.292Z,50.01
2019-04-24T18:44:13.075Z,50.17
2019-04-24T18:46:38.567Z,50.19
2019-04-24T18:49:05.481Z,50.21
2019-04-24T18:51:31.315Z,50.69
2019-04-24T18:53:56.631Z,50.47
2019-04-24T18:56:22.667Z,50.57
2019-04-24T18:58:48.711Z,50.26
2019-04-24T19:01:14.833Z,50.72
2019-04-24T19:03:41.634Z,50.51
2019-04-24T19:06:19.413Z,50.61
2019-04-24T19:08:33.109Z,50.32
2019-04-24T19:10:58.817Z,50.46
2019-04-24T19:13:24.851Z,50.52
2019-04-24T19:15:51.326Z,50.44
2019-04-24T19:18:17.299Z,50.44
2019-04-24T19:20:43.187Z,50.42
2019-04-24T19:23:10.057Z,50.17
2019-04-24T19:25:35.441Z,50.64
2019-04-24T19:28:01.600Z,50.49
2019-04-24T19:30:27.565Z,50.73
2019-04-24T19:32:53.594Z,50.78
2019-04-24T19:35:19.869Z,50.75
2019-04-24T19:37:45.887Z,50.58
2019-04-24T19:40:25.672Z,50.86
2019-04-24T19:42:37.930Z,50.44
2019-04-24T19:45:03.975Z,50.99
2019-04-24T19:47:38.136Z,50.81
2019-04-24T19:50:05.313Z,50.82
2019-04-24T19:52:22.999Z,50.66
2019-04-24T19:54:48.131Z,51.12
2019-04-24T19:57:17.727Z,51.24
2019-04-24T19:59:41.282Z,50.98
2019-04-24T20:02:06.143Z,51.21
2019-04-24T20:04:32.149Z,50.95
2019-04-24T20:06:58.278Z,51.15
2019-04-24T20:09:24.276Z,50.89
2019-04-24T20:11:51.324Z,51.29
2019-04-24T20:14:17.055Z,50.95
2019-04-24T20:16:44.604Z,51.20
2019-04-24T20:19:08.526Z,51.31
2019-04-24T20:21:34.521Z,51.31
2019-04-24T20:24:02.190Z,51.22
2019-04-24T20:26:26.544Z,51.35
2019-04-24T20:28:52.558Z,51.09
2019-04-24T20:31:18.553Z,51.14
2019-04-24T20:33:44.578Z,51.32
2019-04-24T20:36:11.408Z,51.22
2019-04-24T20:38:36.597Z,51.19
2019-04-24T20:41:03.198Z,50.88
2019-04-24T20:43:28.654Z,51.08
2019-04-24T20:45:54.703Z,50.96
2019-04-24T20:48:22.190Z,50.92
2019-04-24T20:50:46.854Z,50.84
2019-04-24T20:53:12.873Z,50.74
2019-04-24T20:55:38.856Z,50.65
2019-04-24T20:58:04.880Z,50.55
2019-04-24T21:00:31.697Z,50.44
2019-04-24T21:02:56.940Z,50.62
2019-04-24T21:05:23.591Z,50.58
2019-04-24T21:07:48.947Z,50.65
2019-04-24T21:10:14.945Z,50.90
2019-04-24T21:12:41.879Z,51.63
2019-04-24T21:15:06.967Z,52.71
2019-04-24T21:17:40.249Z,52.00
2019-04-24T21:20:06.266Z,52.20
2019-04-24T21:22:32.823Z,52.47
2019-04-24T21:24:58.842Z,52.21
2019-04-24T21:27:24.857Z,53.95
2019-04-24T21:29:51.777Z,54.48
2019-04-24T21:32:17.772Z,54.12
2019-04-24T21:34:44.009Z,54.69
2019-04-24T21:37:10.006Z,53.44
2019-04-24T21:39:36.046Z,54.71
2019-04-24T21:42:02.051Z,55.40
2019-04-24T21:44:28.059Z,53.55
2019-04-24T21:46:54.055Z,54.02
2019-04-24T21:49:20.127Z,55.06
2019-04-24T21:51:46.147Z,53.63
2019-04-24T21:54:14.361Z,55.14
2019-04-24T21:56:38.163Z,55.27
2019-04-24T21:59:04.153Z,54.99
2019-04-24T22:01:30.216Z,54.69
2019-04-24T22:03:56.212Z,55.01
2019-04-24T22:06:22.227Z,54.59
2019-04-24T22:08:48.230Z,54.51
2019-04-24T22:11:14.226Z,54.20
2019-04-24T22:13:40.241Z,54.35
2019-04-24T22:16:06.236Z,54.16
2019-04-24T22:18:33.286Z,54.06
2019-04-24T22:20:58.279Z,54.09
2019-04-24T22:23:24.293Z,54.03
2019-04-24T22:25:50.291Z,53.80
2019-04-24T22:28:16.342Z,53.68
2019-04-24T22:30:42.371Z,53.58
2019-04-24T22:33:08.352Z,53.40
2019-04-24T22:35:35.091Z,53.35
2019-04-24T22:38:00.364Z,53.25
2019-04-24T22:40:27.833Z,53.20
2019-04-24T22:42:52.710Z,52.90
2019-04-24T22:45:18.401Z,52.96
2019-04-24T22:47:44.435Z,53.09
2019-04-24T22:50:10.469Z,52.89
2019-04-24T22:52:36.900Z,52.86
2019-04-24T22:55:02.475Z,52.84
2019-04-24T22:57:28.472Z,52.72
2019-04-24T22:59:54.489Z,52.63
2019-04-24T23:02:22.093Z,52.55
2019-04-24T23:04:46.501Z,52.35
2019-04-24T23:07:12.513Z,52.48
2019-04-24T23:09:38.506Z,52.40
2019-04-24T23:12:04.535Z,52.15
2019-04-24T23:14:31.394Z,52.25
2019-04-24T23:16:56.543Z,52.26
2019-04-24T23:19:23.773Z,52.22
2019-04-24T23:21:48.571Z,52.14
2019-04-24T23:24:14.571Z,51.86
2019-04-24T23:26:40.639Z,52.05
2019-04-24T23:29:06.645Z,51.95
2019-04-24T23:31:33.730Z,51.93
2019-04-24T23:33:58.654Z,51.92
2019-04-24T23:36:24.660Z,51.88
2019-04-24T23:38:52.225Z,51.87
2019-04-24T23:41:16.675Z,51.79
2019-04-24T23:43:42.683Z,51.76
2019-04-24T23:46:08.696Z,51.75
2019-04-24T23:48:35.353Z,51.62
2019-04-24T23:51:01.894Z,51.59
2019-04-24T23:53:26.719Z,51.62
2019-04-24T23:55:52.734Z,51.54
2019-04-24T23:58:18.760Z,51.54
